Liberty Township, OH

10:26 AM EST on December 21, 2014 (GMT -0500)
Liberty and Fairfield Twp | Change Station
CLOSE
Current Station
Personal Weather Station
Location: Hamilton, OH
Elevation: 780 ft
Nearby Weather Stations

Elev 780 ft 39.39 °N, 84.48 °W | Updated 1 second ago

Clear
Clear
30.8 °F
Feels Like 31 °F
N
3.0
Wind Variable Wind from East
Gusts 7.0 mph

Today
High -- | Low -- °F
--% Chance of Precip.
Yesterday
High -- | Low -- °F
Precip. -- in
7:54 AM 5:17 PM
Waning Crescent, 0% visible
Pressure 30.37 in
Visibility 3.0 miles
Clouds Clear
Windchill 31 °F
Dew Point 27 °F
Humidity 85%
Rainfall 0.00 in
Snow Depth Not available.
UV 1 out of 12
Pollen .10 out of 12
Air Quality Not available.
Flu Activity Not available.
METAR KHAO 211453Z AUTO 00000KT 3SM BR CLR M03/M04 A3034 RMK AO2 SLP284 T10281039 53004

More Conditions Fewer Conditions

Pressure 30.37 in
Visibility 3.0 miles
Clouds Clear
Windchill 31 °F
Dew Point 27 °F
Humidity 85%
Rainfall 0.00 in
Snow Depth Not available.
UV 1 out of 12
Pollen .10 out of 12
Air Quality Not available.
Flu Activity Not available.
METAR KHAO 211453Z AUTO 00000KT 3SM BR CLR M03/M04 A3034 RMK AO2 SLP284 T10281039 53004

More Conditions Fewer Conditions

10-Day Weather Forecast

Almanac

Astronomy

Dec. 21, 2014 Rise Set
Actual Time
Civil Twilight
Nautical Twilight
Astronomical Twilight
Moon
Length of Visible Light
Length of Day
Tomorrow will be .
, % of the Moon is Illuminated

Today's Extremes

State Highs State Lows

Community

WunderPhotos

Upload Photos

1,779,412 photos uploaded!

WunderBlogs® & News

Nearby

Air Quality

  Air Quality AQ Index Pollutant
Not available.

Snow Depth

Station Depth Elevation

Earthquake Activity

City Distance Mag. Time & Date
Minimum magnitude displayed is 2.5.

Coastal Water Temperatures

Place Temperature

Nearby Weather Stations